Portada
METAR-TAF:

METAR-TAF

Aeropuertos :

Aeropuerto de Oujda Angads

Oujda, Marruecos

latitud: 34-47N, longitud: 001-56W, altitud: 468 m

Observación

El informe se hizo hace 28 minutos, a las 17:30 UTC
Viento 13 kt del norte-noroeste
Temperatura 23°C
Humedad 50%
Presión 1020 hPa
Visibilidad 10 km o más
sin nubes por debajo de 1500 m y sin presencia de cumulonimbus.

METAR: GMFO 261730Z 34013KT CAVOK 23/12 Q1020 NOSIG

Hora: 18:58 (17:58 UTC)

Pronóstico

El informe se hizo hace 58 minutos, a las 17:00 UTC
Pronóstico válido del 26 a las 18 UTC al 27 a las 24 UTC
Viento 14 kt del norte-noroeste
Visibilidad 10 km o más
sin nubes por debajo de 1500 m y sin presencia de cumulonimbus.
Temporalmente
del 26 a las 23 UTC al 27 a las 07 UTC
Viento 4 kt del sur

TAF: GMFO 261700Z 2618/2724 33014KT CAVOK TEMPO 2623/2707 18004KT

Observaciones y pronósticos meteorológicos de más de 4000 aeropuertos (mensajes METAR y TAF).

Los puntos amarillos y rojos representan las estaciones disponibles.

Ponga el ratón en el punto deseado para ver el nombre de la estación.

Haga clic para ver las observaciones y los pronósticos meteorológicos.

Para cambiar el mapa : haga clic en los botones verdes con una cruz de color negro para hacer un zoom, en el botón verde con un guión para alejar o en las flechas verdes para mapas adyacentes.


METAR-TAF: